LEBL Airport Information

Runway Information
Runway 02 Length 8333 ft width 148 ft
Elevation 7 ft Threshold 131 ft Heading 19
Runway 20 Length 8333 ft Width 148 ft
Elevation 12 ft Threshold 0 ft Heading 199
Runway 07L Length 11654 ft width 148 ft
Elevation 8 ft Threshold 295 ft Heading 66
Runway 25R Length 11654 ft Width 148 ft
Elevation 10 ft Threshold 0 ft Heading 246
Runway 07R Length 8727 ft width 197 ft
Elevation 8 ft Threshold 0 ft Heading 66
Runway 25L Length 8727 ft Width 197 ft
Elevation 8 ft Threshold 0 ft Heading 246
Airport Frequencies
Type APP Name APP Frequency 119.1 MHZ
Type ATIS Name ATIS Frequency 118.65 MHZ
Type CLD Name CLNC DEL Frequency 121.8 MHZ
Type GND Name GND Frequency 121.65 MHZ
Type TWR Name TWR Frequency 118.1 MHZ
Airport Navaids
Type VOR-DME Name Barcelona Frequency 116700 KHZ
Type VOR-DME Name El Prat Frequency 114300 KHZ
Type VOR-DME Name Sabadell Frequency 112000 KHZ
Type NDB Name Villanueva Frequency 380 KHZ
Airport Weather Information & NOTAM
ADDS - METARS form results

(0136 UTC 19 August 2018)
 
METAR text: LEBL 190130Z 31010KT CAVOK 22/17 Q1019 NOSIG
Conditions at: LEBL (BARCELONA AIRPOR, ES) observed 0130 UTC 19 August 2018
Temperature: 22.0°C (72°F)
Dewpoint: 17.0°C (63°F) [RH = 73%]
Pressure (altimeter): 30.09 inches Hg (1019.0 mb)
Winds: from the NW (310 degrees) at 12 MPH (10 knots; 5.2 m/s)
Visibility: 6 or more miles (10+ km)
Ceiling: ceiling and visibility are OK
Clouds: unknown
Weather: no significant weather observed at this time

METAR text: LEBL 190100Z 29007KT CAVOK 22/17 Q1019 NOSIG
Conditions at: LEBL (BARCELONA AIRPOR, ES) observed 0100 UTC 19 August 2018
Temperature: 22.0°C (72°F)
Dewpoint: 17.0°C (63°F) [RH = 73%]
Pressure (altimeter): 30.09 inches Hg (1019.0 mb)
Winds: from the WNW (290 degrees) at 8 MPH (7 knots; 3.6 m/s)
Visibility: 6 or more miles (10+ km)
Ceiling: ceiling and visibility are OK
Clouds: unknown
Weather: no significant weather observed at this time